sensor_id;sensor_type;location;lat;lon;timestamp;P1;durP1;ratioP1;P2;durP2;ratioP2
25381;SDS011;16307;42.896;20.874;2023-10-19T00:01:40;32.20;;;15.40;;
25381;SDS011;16307;42.896;20.874;2023-10-19T00:04:26;28.63;;;14.68;;
25381;SDS011;16307;42.896;20.874;2023-10-19T00:07:17;28.67;;;15.50;;
25381;SDS011;16307;42.896;20.874;2023-10-19T00:10:03;27.58;;;15.02;;
25381;SDS011;16307;42.896;20.874;2023-10-19T00:12:49;28.45;;;15.48;;
25381;SDS011;16307;42.896;20.874;2023-10-19T00:15:43;26.95;;;14.77;;
25381;SDS011;16307;42.896;20.874;2023-10-19T00:18:37;27.02;;;14.02;;
25381;SDS011;16307;42.896;20.874;2023-10-19T00:21:28;27.65;;;14.73;;
25381;SDS011;16307;42.896;20.874;2023-10-19T00:24:15;27.05;;;15.18;;
25381;SDS011;16307;42.896;20.874;2023-10-19T00:27:02;26.27;;;15.52;;
25381;SDS011;16307;42.896;20.874;2023-10-19T00:30:01;24.50;;;13.93;;
25381;SDS011;16307;42.896;20.874;2023-10-19T00:32:54;25.70;;;14.88;;
25381;SDS011;16307;42.896;20.874;2023-10-19T00:35:40;29.90;;;16.63;;
25381;SDS011;16307;42.896;20.874;2023-10-19T00:38:46;30.42;;;14.68;;
25381;SDS011;16307;42.896;20.874;2023-10-19T00:41:36;29.05;;;13.57;;
25381;SDS011;16307;42.896;20.874;2023-10-19T00:44:23;24.20;;;13.07;;
25381;SDS011;16307;42.896;20.874;2023-10-19T00:47:35;20.98;;;12.95;;
25381;SDS011;16307;42.896;20.874;2023-10-19T00:50:28;24.23;;;13.25;;
25381;SDS011;16307;42.896;20.874;2023-10-19T00:53:17;28.02;;;13.40;;
25381;SDS011;16307;42.896;20.874;2023-10-19T00:56:03;23.80;;;13.02;;
25381;SDS011;16307;42.896;20.874;2023-10-19T00:58:54;23.37;;;12.80;;
25381;SDS011;16307;42.896;20.874;2023-10-19T01:01:46;26.42;;;13.45;;
25381;SDS011;16307;42.896;20.874;2023-10-19T01:04:35;25.88;;;13.57;;
25381;SDS011;16307;42.896;20.874;2023-10-19T01:07:22;28.63;;;13.80;;
25381;SDS011;16307;42.896;20.874;2023-10-19T01:10:13;27.17;;;15.20;;
25381;SDS011;16307;42.896;20.874;2023-10-19T01:13:19;25.05;;;14.18;;
25381;SDS011;16307;42.896;20.874;2023-10-19T01:16:20;26.83;;;14.77;;
25381;SDS011;16307;42.896;20.874;2023-10-19T01:19:07;26.05;;;13.63;;
25381;SDS011;16307;42.896;20.874;2023-10-19T01:21:53;24.25;;;13.35;;
25381;SDS011;16307;42.896;20.874;2023-10-19T01:24:45;27.93;;;14.10;;
25381;SDS011;16307;42.896;20.874;2023-10-19T01:27:31;22.75;;;12.77;;
25381;SDS011;16307;42.896;20.874;2023-10-19T01:30:18;27.23;;;13.57;;
25381;SDS011;16307;42.896;20.874;2023-10-19T01:33:04;22.75;;;12.40;;
25381;SDS011;16307;42.896;20.874;2023-10-19T01:35:58;20.08;;;12.23;;
25381;SDS011;16307;42.896;20.874;2023-10-19T01:38:57;20.95;;;13.05;;
25381;SDS011;16307;42.896;20.874;2023-10-19T01:41:47;22.38;;;13.27;;
25381;SDS011;16307;42.896;20.874;2023-10-19T01:44:36;22.75;;;13.20;;
25381;SDS011;16307;42.896;20.874;2023-10-19T01:47:22;21.55;;;12.13;;
25381;SDS011;16307;42.896;20.874;2023-10-19T01:50:10;23.20;;;13.20;;
25381;SDS011;16307;42.896;20.874;2023-10-19T01:53:05;25.15;;;13.05;;
25381;SDS011;16307;42.896;20.874;2023-10-19T01:56:01;26.08;;;13.00;;
25381;SDS011;16307;42.896;20.874;2023-10-19T01:58:51;26.92;;;14.02;;
25381;SDS011;16307;42.896;20.874;2023-10-19T02:01:37;25.15;;;13.20;;
25381;SDS011;16307;42.896;20.874;2023-10-19T02:04:27;27.92;;;13.55;;
25381;SDS011;16307;42.896;20.874;2023-10-19T02:07:14;24.80;;;12.80;;
25381;SDS011;16307;42.896;20.874;2023-10-19T02:10:04;24.45;;;14.00;;
25381;SDS011;16307;42.896;20.874;2023-10-19T02:12:53;23.88;;;13.80;;
25381;SDS011;16307;42.896;20.874;2023-10-19T02:15:42;25.48;;;13.48;;
25381;SDS011;16307;42.896;20.874;2023-10-19T02:18:29;25.88;;;13.65;;
25381;SDS011;16307;42.896;20.874;2023-10-19T02:21:16;25.45;;;14.35;;
25381;SDS011;16307;42.896;20.874;2023-10-19T02:24:08;24.00;;;14.18;;
25381;SDS011;16307;42.896;20.874;2023-10-19T02:26:59;27.73;;;14.32;;
25381;SDS011;16307;42.896;20.874;2023-10-19T02:29:50;25.40;;;14.07;;
25381;SDS011;16307;42.896;20.874;2023-10-19T02:32:36;26.67;;;14.13;;
25381;SDS011;16307;42.896;20.874;2023-10-19T02:35:23;23.25;;;13.50;;
25381;SDS011;16307;42.896;20.874;2023-10-19T02:38:09;26.48;;;13.93;;
25381;SDS011;16307;42.896;20.874;2023-10-19T02:40:55;22.00;;;12.80;;
25381;SDS011;16307;42.896;20.874;2023-10-19T02:43:41;19.17;;;11.95;;
25381;SDS011;16307;42.896;20.874;2023-10-19T02:46:31;22.58;;;12.88;;
25381;SDS011;16307;42.896;20.874;2023-10-19T02:49:18;19.98;;;13.50;;
25381;SDS011;16307;42.896;20.874;2023-10-19T02:52:06;21.10;;;12.63;;
25381;SDS011;16307;42.896;20.874;2023-10-19T02:54:52;24.15;;;14.15;;
25381;SDS011;16307;42.896;20.874;2023-10-19T02:57:43;21.67;;;13.85;;
25381;SDS011;16307;42.896;20.874;2023-10-19T03:00:32;23.67;;;13.80;;
25381;SDS011;16307;42.896;20.874;2023-10-19T03:03:20;28.00;;;13.88;;
25381;SDS011;16307;42.896;20.874;2023-10-19T03:06:06;25.52;;;14.43;;
25381;SDS011;16307;42.896;20.874;2023-10-19T03:08:52;22.95;;;13.32;;
25381;SDS011;16307;42.896;20.874;2023-10-19T03:11:47;26.05;;;14.05;;
25381;SDS011;16307;42.896;20.874;2023-10-19T03:14:37;22.80;;;13.80;;
25381;SDS011;16307;42.896;20.874;2023-10-19T03:17:23;23.27;;;13.82;;
25381;SDS011;16307;42.896;20.874;2023-10-19T03:20:11;22.73;;;13.23;;
25381;SDS011;16307;42.896;20.874;2023-10-19T03:22:57;24.05;;;13.25;;
25381;SDS011;16307;42.896;20.874;2023-10-19T03:25:46;24.63;;;13.07;;
25381;SDS011;16307;42.896;20.874;2023-10-19T03:28:57;23.45;;;13.68;;
25381;SDS011;16307;42.896;20.874;2023-10-19T03:31:48;24.83;;;13.75;;
25381;SDS011;16307;42.896;20.874;2023-10-19T03:34:36;23.33;;;13.85;;
25381;SDS011;16307;42.896;20.874;2023-10-19T03:37:25;25.38;;;14.13;;
25381;SDS011;16307;42.896;20.874;2023-10-19T03:40:15;24.63;;;13.30;;
25381;SDS011;16307;42.896;20.874;2023-10-19T03:43:11;26.05;;;13.82;;
25381;SDS011;16307;42.896;20.874;2023-10-19T03:46:03;25.10;;;13.38;;
25381;SDS011;16307;42.896;20.874;2023-10-19T03:49:10;27.33;;;14.57;;
25381;SDS011;16307;42.896;20.874;2023-10-19T03:51:57;25.85;;;14.20;;
25381;SDS011;16307;42.896;20.874;2023-10-19T03:54:44;23.58;;;14.18;;
25381;SDS011;16307;42.896;20.874;2023-10-19T03:57:30;24.55;;;12.88;;
25381;SDS011;16307;42.896;20.874;2023-10-19T04:00:20;26.80;;;15.27;;
25381;SDS011;16307;42.896;20.874;2023-10-19T04:03:18;26.08;;;14.38;;
25381;SDS011;16307;42.896;20.874;2023-10-19T04:06:08;30.33;;;14.90;;
25381;SDS011;16307;42.896;20.874;2023-10-19T04:09:00;25.45;;;13.80;;
25381;SDS011;16307;42.896;20.874;2023-10-19T04:11:46;24.05;;;14.50;;
25381;SDS011;16307;42.896;20.874;2023-10-19T04:14:37;23.60;;;14.52;;
25381;SDS011;16307;42.896;20.874;2023-10-19T04:17:25;29.95;;;15.45;;
25381;SDS011;16307;42.896;20.874;2023-10-19T04:20:11;29.02;;;15.55;;
25381;SDS011;16307;42.896;20.874;2023-10-19T04:23:04;28.70;;;15.38;;
25381;SDS011;16307;42.896;20.874;2023-10-19T04:25:58;30.60;;;15.40;;
25381;SDS011;16307;42.896;20.874;2023-10-19T04:28:44;30.73;;;16.35;;
25381;SDS011;16307;42.896;20.874;2023-10-19T04:31:30;27.20;;;14.90;;
25381;SDS011;16307;42.896;20.874;2023-10-19T04:34:17;24.80;;;14.85;;
25381;SDS011;16307;42.896;20.874;2023-10-19T04:37:06;24.38;;;15.07;;
25381;SDS011;16307;42.896;20.874;2023-10-19T04:39:52;30.95;;;14.85;;
25381;SDS011;16307;42.896;20.874;2023-10-19T04:42:38;29.63;;;16.45;;
25381;SDS011;16307;42.896;20.874;2023-10-19T04:45:24;27.05;;;15.43;;
25381;SDS011;16307;42.896;20.874;2023-10-19T04:48:10;27.40;;;15.40;;
25381;SDS011;16307;42.896;20.874;2023-10-19T04:50:56;29.60;;;16.02;;
25381;SDS011;16307;42.896;20.874;2023-10-19T04:53:42;30.70;;;16.15;;
25381;SDS011;16307;42.896;20.874;2023-10-19T04:56:28;26.45;;;14.90;;
25381;SDS011;16307;42.896;20.874;2023-10-19T04:59:14;30.98;;;15.98;;
25381;SDS011;16307;42.896;20.874;2023-10-19T05:02:00;33.28;;;16.80;;
25381;SDS011;16307;42.896;20.874;2023-10-19T05:04:47;28.48;;;15.88;;
25381;SDS011;16307;42.896;20.874;2023-10-19T05:07:33;36.33;;;17.20;;
25381;SDS011;16307;42.896;20.874;2023-10-19T05:10:19;33.05;;;17.23;;
25381;SDS011;16307;42.896;20.874;2023-10-19T05:13:05;36.80;;;18.45;;
25381;SDS011;16307;42.896;20.874;2023-10-19T05:15:52;42.42;;;17.98;;
25381;SDS011;16307;42.896;20.874;2023-10-19T05:18:40;36.70;;;19.52;;
25381;SDS011;16307;42.896;20.874;2023-10-19T05:21:26;41.85;;;18.85;;
25381;SDS011;16307;42.896;20.874;2023-10-19T05:24:12;34.70;;;18.50;;
25381;SDS011;16307;42.896;20.874;2023-10-19T05:26:59;35.22;;;17.70;;
25381;SDS011;16307;42.896;20.874;2023-10-19T05:29:45;32.60;;;18.73;;
25381;SDS011;16307;42.896;20.874;2023-10-19T05:32:31;30.92;;;18.63;;
25381;SDS011;16307;42.896;20.874;2023-10-19T05:35:19;37.25;;;19.17;;
25381;SDS011;16307;42.896;20.874;2023-10-19T05:38:08;32.72;;;18.65;;
25381;SDS011;16307;42.896;20.874;2023-10-19T05:40:56;38.33;;;20.92;;
25381;SDS011;16307;42.896;20.874;2023-10-19T05:43:42;38.30;;;18.65;;
25381;SDS011;16307;42.896;20.874;2023-10-19T05:46:29;39.38;;;20.27;;
25381;SDS011;16307;42.896;20.874;2023-10-19T05:49:14;32.65;;;17.95;;
25381;SDS011;16307;42.896;20.874;2023-10-19T05:52:02;40.00;;;21.75;;
25381;SDS011;16307;42.896;20.874;2023-10-19T05:54:49;37.85;;;21.40;;
25381;SDS011;16307;42.896;20.874;2023-10-19T05:57:35;41.08;;;21.52;;
25381;SDS011;16307;42.896;20.874;2023-10-19T06:00:25;44.60;;;24.20;;
25381;SDS011;16307;42.896;20.874;2023-10-19T06:03:11;42.60;;;23.65;;
25381;SDS011;16307;42.896;20.874;2023-10-19T06:05:57;42.13;;;22.90;;
25381;SDS011;16307;42.896;20.874;2023-10-19T06:08:43;41.03;;;21.50;;
25381;SDS011;16307;42.896;20.874;2023-10-19T06:11:30;42.72;;;22.95;;
25381;SDS011;16307;42.896;20.874;2023-10-19T06:14:18;41.17;;;20.92;;
25381;SDS011;16307;42.896;20.874;2023-10-19T06:17:05;38.90;;;21.65;;
25381;SDS011;16307;42.896;20.874;2023-10-19T06:19:51;39.38;;;21.73;;
25381;SDS011;16307;42.896;20.874;2023-10-19T06:22:38;42.85;;;23.17;;
25381;SDS011;16307;42.896;20.874;2023-10-19T06:25:24;42.60;;;21.83;;
25381;SDS011;16307;42.896;20.874;2023-10-19T06:28:11;45.83;;;23.52;;
25381;SDS011;16307;42.896;20.874;2023-10-19T06:30:57;45.53;;;22.95;;
25381;SDS011;16307;42.896;20.874;2023-10-19T06:33:43;46.80;;;21.88;;
25381;SDS011;16307;42.896;20.874;2023-10-19T06:36:29;41.47;;;21.58;;
25381;SDS011;16307;42.896;20.874;2023-10-19T06:39:15;47.75;;;22.27;;
25381;SDS011;16307;42.896;20.874;2023-10-19T06:42:02;42.80;;;23.33;;
25381;SDS011;16307;42.896;20.874;2023-10-19T06:44:48;49.80;;;23.73;;
25381;SDS011;16307;42.896;20.874;2023-10-19T06:47:48;52.80;;;27.23;;
25381;SDS011;16307;42.896;20.874;2023-10-19T06:50:35;50.50;;;26.33;;
25381;SDS011;16307;42.896;20.874;2023-10-19T06:53:23;60.67;;;28.15;;
25381;SDS011;16307;42.896;20.874;2023-10-19T06:56:09;52.97;;;27.60;;
25381;SDS011;16307;42.896;20.874;2023-10-19T06:58:57;61.42;;;28.17;;
25381;SDS011;16307;42.896;20.874;2023-10-19T07:01:43;56.40;;;30.52;;
25381;SDS011;16307;42.896;20.874;2023-10-19T07:04:29;62.08;;;29.88;;
25381;SDS011;16307;42.896;20.874;2023-10-19T07:07:15;62.05;;;29.20;;
25381;SDS011;16307;42.896;20.874;2023-10-19T07:10:01;53.03;;;30.00;;
25381;SDS011;16307;42.896;20.874;2023-10-19T07:12:52;55.28;;;29.73;;
25381;SDS011;16307;42.896;20.874;2023-10-19T07:15:44;50.92;;;28.67;;
25381;SDS011;16307;42.896;20.874;2023-10-19T07:18:30;49.13;;;26.65;;
25381;SDS011;16307;42.896;20.874;2023-10-19T07:21:17;53.15;;;26.05;;
25381;SDS011;16307;42.896;20.874;2023-10-19T07:24:03;46.72;;;25.25;;
25381;SDS011;16307;42.896;20.874;2023-10-19T07:26:55;48.42;;;24.10;;
25381;SDS011;16307;42.896;20.874;2023-10-19T07:30:19;49.13;;;22.30;;
25381;SDS011;16307;42.896;20.874;2023-10-19T07:33:12;35.50;;;19.20;;
25381;SDS011;16307;42.896;20.874;2023-10-19T07:36:11;39.45;;;20.90;;
25381;SDS011;16307;42.896;20.874;2023-10-19T07:38:59;43.03;;;24.88;;
25381;SDS011;16307;42.896;20.874;2023-10-19T07:41:45;40.03;;;22.98;;
25381;SDS011;16307;42.896;20.874;2023-10-19T07:44:32;42.47;;;23.77;;
25381;SDS011;16307;42.896;20.874;2023-10-19T07:47:18;41.15;;;24.40;;
25381;SDS011;16307;42.896;20.874;2023-10-19T07:50:04;40.03;;;23.50;;
25381;SDS011;16307;42.896;20.874;2023-10-19T07:52:51;36.28;;;22.10;;
25381;SDS011;16307;42.896;20.874;2023-10-19T07:55:39;45.90;;;23.83;;
25381;SDS011;16307;42.896;20.874;2023-10-19T07:58:26;48.45;;;23.63;;
25381;SDS011;16307;42.896;20.874;2023-10-19T08:01:12;38.45;;;22.33;;
25381;SDS011;16307;42.896;20.874;2023-10-19T08:03:58;35.15;;;20.42;;
25381;SDS011;16307;42.896;20.874;2023-10-19T08:06:44;35.70;;;19.73;;
25381;SDS011;16307;42.896;20.874;2023-10-19T08:09:32;37.75;;;19.50;;
25381;SDS011;16307;42.896;20.874;2023-10-19T08:12:20;29.08;;;17.80;;
25381;SDS011;16307;42.896;20.874;2023-10-19T08:15:08;36.28;;;18.95;;
25381;SDS011;16307;42.896;20.874;2023-10-19T08:17:59;32.88;;;18.08;;
25381;SDS011;16307;42.896;20.874;2023-10-19T08:20:45;26.52;;;15.43;;
25381;SDS011;16307;42.896;20.874;2023-10-19T08:23:31;25.92;;;14.45;;
25381;SDS011;16307;42.896;20.874;2023-10-19T08:26:18;29.42;;;15.68;;
25381;SDS011;16307;42.896;20.874;2023-10-19T08:29:04;31.20;;;17.17;;
25381;SDS011;16307;42.896;20.874;2023-10-19T08:31:58;31.38;;;15.90;;
25381;SDS011;16307;42.896;20.874;2023-10-19T08:34:45;25.13;;;14.85;;
25381;SDS011;16307;42.896;20.874;2023-10-19T08:37:31;20.30;;;14.10;;
25381;SDS011;16307;42.896;20.874;2023-10-19T08:40:17;21.48;;;12.52;;
25381;SDS011;16307;42.896;20.874;2023-10-19T08:43:05;21.77;;;13.05;;
25381;SDS011;16307;42.896;20.874;2023-10-19T08:45:53;20.30;;;11.07;;
25381;SDS011;16307;42.896;20.874;2023-10-19T08:48:40;19.33;;;11.05;;
25381;SDS011;16307;42.896;20.874;2023-10-19T08:51:27;28.05;;;11.13;;
25381;SDS011;16307;42.896;20.874;2023-10-19T08:54:14;16.70;;;9.85;;
25381;SDS011;16307;42.896;20.874;2023-10-19T08:57:01;17.58;;;10.90;;
25381;SDS011;16307;42.896;20.874;2023-10-19T08:59:48;22.58;;;11.90;;
25381;SDS011;16307;42.896;20.874;2023-10-19T09:02:34;19.05;;;11.27;;
25381;SDS011;16307;42.896;20.874;2023-10-19T09:05:20;17.73;;;10.13;;
25381;SDS011;16307;42.896;20.874;2023-10-19T09:08:15;22.70;;;11.15;;
25381;SDS011;16307;42.896;20.874;2023-10-19T09:11:05;16.50;;;10.57;;
25381;SDS011;16307;42.896;20.874;2023-10-19T09:13:52;17.08;;;10.20;;
25381;SDS011;16307;42.896;20.874;2023-10-19T09:17:13;20.10;;;11.55;;
25381;SDS011;16307;42.896;20.874;2023-10-19T09:19:54;17.15;;;10.23;;
25381;SDS011;16307;42.896;20.874;2023-10-19T09:22:41;17.88;;;10.60;;
25381;SDS011;16307;42.896;20.874;2023-10-19T09:25:30;21.67;;;10.05;;
25381;SDS011;16307;42.896;20.874;2023-10-19T09:28:16;16.38;;;10.30;;
25381;SDS011;16307;42.896;20.874;2023-10-19T09:31:03;13.85;;;9.52;;
25381;SDS011;16307;42.896;20.874;2023-10-19T09:33:50;15.20;;;8.80;;
25381;SDS011;16307;42.896;20.874;2023-10-19T09:36:39;16.52;;;8.73;;
25381;SDS011;16307;42.896;20.874;2023-10-19T09:39:25;15.75;;;9.00;;
25381;SDS011;16307;42.896;20.874;2023-10-19T09:42:12;26.83;;;11.02;;
25381;SDS011;16307;42.896;20.874;2023-10-19T09:45:03;17.33;;;10.18;;
25381;SDS011;16307;42.896;20.874;2023-10-19T09:47:51;67.07;;;17.48;;
25381;SDS011;16307;42.896;20.874;2023-10-19T09:50:40;17.92;;;9.98;;
25381;SDS011;16307;42.896;20.874;2023-10-19T09:53:26;19.60;;;9.82;;
25381;SDS011;16307;42.896;20.874;2023-10-19T09:56:15;14.10;;;9.23;;
25381;SDS011;16307;42.896;20.874;2023-10-19T09:59:11;12.82;;;7.85;;
25381;SDS011;16307;42.896;20.874;2023-10-19T10:02:07;15.65;;;7.68;;
25381;SDS011;16307;42.896;20.874;2023-10-19T10:04:59;12.70;;;8.20;;
25381;SDS011;16307;42.896;20.874;2023-10-19T10:07:45;11.93;;;7.90;;
25381;SDS011;16307;42.896;20.874;2023-10-19T10:10:33;14.88;;;7.55;;
25381;SDS011;16307;42.896;20.874;2023-10-19T10:16:24;13.57;;;7.60;;
25381;SDS011;16307;42.896;20.874;2023-10-19T10:19:12;13.38;;;7.20;;
25381;SDS011;16307;42.896;20.874;2023-10-19T10:22:09;17.30;;;8.85;;
25381;SDS011;16307;42.896;20.874;2023-10-19T10:25:00;21.30;;;8.10;;
25381;SDS011;16307;42.896;20.874;2023-10-19T10:27:50;12.63;;;7.00;;
25381;SDS011;16307;42.896;20.874;2023-10-19T10:30:37;12.07;;;7.18;;
25381;SDS011;16307;42.896;20.874;2023-10-19T10:33:42;12.35;;;6.80;;
25381;SDS011;16307;42.896;20.874;2023-10-19T10:36:56;10.73;;;7.18;;
25381;SDS011;16307;42.896;20.874;2023-10-19T10:39:45;13.18;;;7.47;;
25381;SDS011;16307;42.896;20.874;2023-10-19T10:42:31;16.70;;;8.23;;
25381;SDS011;16307;42.896;20.874;2023-10-19T10:45:19;27.77;;;14.40;;
25381;SDS011;16307;42.896;20.874;2023-10-19T10:48:15;22.90;;;9.38;;
25381;SDS011;16307;42.896;20.874;2023-10-19T10:51:02;12.88;;;6.07;;
25381;SDS011;16307;42.896;20.874;2023-10-19T10:53:52;13.43;;;6.68;;
25381;SDS011;16307;42.896;20.874;2023-10-19T10:56:42;11.15;;;5.28;;
25381;SDS011;16307;42.896;20.874;2023-10-19T10:59:29;14.05;;;5.75;;
25381;SDS011;16307;42.896;20.874;2023-10-19T11:02:18;13.82;;;5.38;;
25381;SDS011;16307;42.896;20.874;2023-10-19T11:05:06;13.48;;;6.47;;
25381;SDS011;16307;42.896;20.874;2023-10-19T11:08:10;14.97;;;5.23;;
25381;SDS011;16307;42.896;20.874;2023-10-19T11:11:03;13.20;;;5.68;;
25381;SDS011;16307;42.896;20.874;2023-10-19T11:13:50;14.50;;;5.05;;
25381;SDS011;16307;42.896;20.874;2023-10-19T11:16:39;10.93;;;5.00;;
25381;SDS011;16307;42.896;20.874;2023-10-19T11:19:37;11.38;;;5.93;;
25381;SDS011;16307;42.896;20.874;2023-10-19T11:22:25;14.85;;;7.28;;
25381;SDS011;16307;42.896;20.874;2023-10-19T11:25:25;17.10;;;9.45;;
25381;SDS011;16307;42.896;20.874;2023-10-19T11:28:16;14.65;;;6.82;;
25381;SDS011;16307;42.896;20.874;2023-10-19T11:34:04;13.80;;;5.55;;
25381;SDS011;16307;42.896;20.874;2023-10-19T11:36:57;13.07;;;6.55;;
25381;SDS011;16307;42.896;20.874;2023-10-19T11:39:46;10.88;;;5.85;;
25381;SDS011;16307;42.896;20.874;2023-10-19T11:42:32;11.80;;;5.88;;
25381;SDS011;16307;42.896;20.874;2023-10-19T11:45:19;13.90;;;6.70;;
25381;SDS011;16307;42.896;20.874;2023-10-19T11:48:05;8.77;;;4.95;;
25381;SDS011;16307;42.896;20.874;2023-10-19T11:50:53;8.73;;;5.18;;
25381;SDS011;16307;42.896;20.874;2023-10-19T11:53:39;12.63;;;5.40;;
25381;SDS011;16307;42.896;20.874;2023-10-19T11:56:25;9.48;;;4.88;;
25381;SDS011;16307;42.896;20.874;2023-10-19T11:59:11;12.98;;;6.47;;
25381;SDS011;16307;42.896;20.874;2023-10-19T12:01:58;26.80;;;9.15;;
25381;SDS011;16307;42.896;20.874;2023-10-19T12:04:46;14.65;;;7.13;;
25381;SDS011;16307;42.896;20.874;2023-10-19T12:07:33;41.13;;;18.55;;
25381;SDS011;16307;42.896;20.874;2023-10-19T12:10:20;21.35;;;12.93;;
25381;SDS011;16307;42.896;20.874;2023-10-19T12:13:11;22.08;;;12.00;;
25381;SDS011;16307;42.896;20.874;2023-10-19T12:15:57;17.05;;;8.43;;
25381;SDS011;16307;42.896;20.874;2023-10-19T12:18:44;14.13;;;7.50;;
25381;SDS011;16307;42.896;20.874;2023-10-19T12:21:31;18.73;;;7.75;;
25381;SDS011;16307;42.896;20.874;2023-10-19T12:24:17;12.55;;;7.07;;
25381;SDS011;16307;42.896;20.874;2023-10-19T12:27:04;14.55;;;8.80;;
25381;SDS011;16307;42.896;20.874;2023-10-19T12:29:50;19.33;;;10.90;;
25381;SDS011;16307;42.896;20.874;2023-10-19T12:32:38;17.52;;;9.18;;
25381;SDS011;16307;42.896;20.874;2023-10-19T12:35:24;21.05;;;7.78;;
25381;SDS011;16307;42.896;20.874;2023-10-19T12:38:17;16.85;;;7.40;;
25381;SDS011;16307;42.896;20.874;2023-10-19T12:41:06;21.67;;;8.85;;
25381;SDS011;16307;42.896;20.874;2023-10-19T12:43:53;10.07;;;6.47;;
25381;SDS011;16307;42.896;20.874;2023-10-19T12:46:54;14.55;;;7.25;;
25381;SDS011;16307;42.896;20.874;2023-10-19T12:49:46;18.45;;;8.15;;
25381;SDS011;16307;42.896;20.874;2023-10-19T12:52:32;18.70;;;9.05;;
25381;SDS011;16307;42.896;20.874;2023-10-19T12:55:21;20.13;;;9.38;;
25381;SDS011;16307;42.896;20.874;2023-10-19T12:58:07;19.42;;;9.38;;
25381;SDS011;16307;42.896;20.874;2023-10-19T13:00:54;18.98;;;8.38;;
25381;SDS011;16307;42.896;20.874;2023-10-19T13:03:42;17.88;;;8.93;;
25381;SDS011;16307;42.896;20.874;2023-10-19T13:06:31;19.70;;;8.32;;
25381;SDS011;16307;42.896;20.874;2023-10-19T13:09:19;21.65;;;8.73;;
25381;SDS011;16307;42.896;20.874;2023-10-19T13:12:08;24.83;;;10.10;;
25381;SDS011;16307;42.896;20.874;2023-10-19T13:14:55;18.77;;;9.43;;
25381;SDS011;16307;42.896;20.874;2023-10-19T13:17:41;20.35;;;10.77;;
25381;SDS011;16307;42.896;20.874;2023-10-19T13:20:29;23.27;;;12.68;;
25381;SDS011;16307;42.896;20.874;2023-10-19T13:23:22;29.05;;;14.18;;
25381;SDS011;16307;42.896;20.874;2023-10-19T13:26:09;24.90;;;11.63;;
25381;SDS011;16307;42.896;20.874;2023-10-19T13:29:02;22.60;;;12.48;;
25381;SDS011;16307;42.896;20.874;2023-10-19T13:31:49;20.27;;;10.20;;
25381;SDS011;16307;42.896;20.874;2023-10-19T13:34:36;23.13;;;11.82;;
25381;SDS011;16307;42.896;20.874;2023-10-19T13:37:24;22.33;;;12.52;;
25381;SDS011;16307;42.896;20.874;2023-10-19T13:40:10;24.15;;;11.65;;
25381;SDS011;16307;42.896;20.874;2023-10-19T13:42:57;28.10;;;12.23;;
25381;SDS011;16307;42.896;20.874;2023-10-19T13:45:44;19.13;;;9.95;;
25381;SDS011;16307;42.896;20.874;2023-10-19T13:48:32;25.70;;;10.80;;
25381;SDS011;16307;42.896;20.874;2023-10-19T13:51:23;18.70;;;9.88;;
25381;SDS011;16307;42.896;20.874;2023-10-19T13:54:09;20.38;;;9.70;;
25381;SDS011;16307;42.896;20.874;2023-10-19T13:56:56;19.35;;;10.07;;
25381;SDS011;16307;42.896;20.874;2023-10-19T13:59:44;21.08;;;9.88;;
25381;SDS011;16307;42.896;20.874;2023-10-19T14:02:30;17.80;;;10.45;;
25381;SDS011;16307;42.896;20.874;2023-10-19T14:05:17;18.83;;;10.55;;
25381;SDS011;16307;42.896;20.874;2023-10-19T14:08:04;20.42;;;9.55;;
25381;SDS011;16307;42.896;20.874;2023-10-19T14:10:51;26.20;;;10.90;;
25381;SDS011;16307;42.896;20.874;2023-10-19T14:13:37;29.20;;;12.93;;
25381;SDS011;16307;42.896;20.874;2023-10-19T14:16:23;20.35;;;10.25;;
25381;SDS011;16307;42.896;20.874;2023-10-19T14:19:11;19.67;;;11.75;;
25381;SDS011;16307;42.896;20.874;2023-10-19T14:22:00;20.42;;;10.50;;
25381;SDS011;16307;42.896;20.874;2023-10-19T14:24:48;23.90;;;10.95;;
25381;SDS011;16307;42.896;20.874;2023-10-19T14:27:37;27.23;;;11.35;;
25381;SDS011;16307;42.896;20.874;2023-10-19T14:30:23;23.25;;;11.15;;
25381;SDS011;16307;42.896;20.874;2023-10-19T14:33:11;23.15;;;12.68;;
25381;SDS011;16307;42.896;20.874;2023-10-19T14:35:57;23.42;;;12.25;;
25381;SDS011;16307;42.896;20.874;2023-10-19T14:38:43;27.13;;;12.45;;
25381;SDS011;16307;42.896;20.874;2023-10-19T14:41:31;24.77;;;13.35;;
25381;SDS011;16307;42.896;20.874;2023-10-19T14:44:17;27.67;;;12.35;;
25381;SDS011;16307;42.896;20.874;2023-10-19T14:47:03;29.58;;;12.55;;
25381;SDS011;16307;42.896;20.874;2023-10-19T14:49:49;32.38;;;13.95;;
25381;SDS011;16307;42.896;20.874;2023-10-19T14:52:35;24.50;;;12.50;;
25381;SDS011;16307;42.896;20.874;2023-10-19T14:55:21;22.63;;;12.00;;
25381;SDS011;16307;42.896;20.874;2023-10-19T14:58:08;24.95;;;11.15;;
25381;SDS011;16307;42.896;20.874;2023-10-19T15:00:55;22.98;;;12.07;;
25381;SDS011;16307;42.896;20.874;2023-10-19T15:03:42;22.60;;;11.88;;
25381;SDS011;16307;42.896;20.874;2023-10-19T15:06:28;23.77;;;10.98;;
25381;SDS011;16307;42.896;20.874;2023-10-19T15:09:21;21.42;;;10.85;;
25381;SDS011;16307;42.896;20.874;2023-10-19T15:12:11;16.85;;;9.38;;
25381;SDS011;16307;42.896;20.874;2023-10-19T15:14:57;23.73;;;10.85;;
25381;SDS011;16307;42.896;20.874;2023-10-19T15:17:44;23.92;;;10.77;;
25381;SDS011;16307;42.896;20.874;2023-10-19T15:20:30;23.40;;;11.05;;
25381;SDS011;16307;42.896;20.874;2023-10-19T15:23:18;29.60;;;10.80;;
25381;SDS011;16307;42.896;20.874;2023-10-19T15:26:05;14.93;;;8.45;;
25381;SDS011;16307;42.896;20.874;2023-10-19T15:28:51;29.15;;;11.02;;
25381;SDS011;16307;42.896;20.874;2023-10-19T15:31:37;18.10;;;9.05;;
25381;SDS011;16307;42.896;20.874;2023-10-19T15:34:23;19.52;;;10.40;;
25381;SDS011;16307;42.896;20.874;2023-10-19T15:37:11;15.85;;;8.10;;
25381;SDS011;16307;42.896;20.874;2023-10-19T15:39:58;18.17;;;7.35;;
25381;SDS011;16307;42.896;20.874;2023-10-19T15:42:44;23.73;;;9.27;;
25381;SDS011;16307;42.896;20.874;2023-10-19T15:45:31;20.67;;;9.18;;
25381;SDS011;16307;42.896;20.874;2023-10-19T15:48:20;18.88;;;8.32;;
25381;SDS011;16307;42.896;20.874;2023-10-19T15:51:07;21.88;;;10.65;;
25381;SDS011;16307;42.896;20.874;2023-10-19T15:53:54;21.13;;;9.80;;
25381;SDS011;16307;42.896;20.874;2023-10-19T15:56:40;19.98;;;9.50;;
25381;SDS011;16307;42.896;20.874;2023-10-19T15:59:26;20.67;;;9.93;;
25381;SDS011;16307;42.896;20.874;2023-10-19T16:02:13;22.13;;;10.52;;
25381;SDS011;16307;42.896;20.874;2023-10-19T16:05:00;22.80;;;10.77;;
25381;SDS011;16307;42.896;20.874;2023-10-19T16:07:46;26.02;;;9.98;;
25381;SDS011;16307;42.896;20.874;2023-10-19T16:10:32;24.70;;;11.85;;
25381;SDS011;16307;42.896;20.874;2023-10-19T16:13:18;24.60;;;11.32;;
25381;SDS011;16307;42.896;20.874;2023-10-19T16:16:05;18.38;;;11.13;;
25381;SDS011;16307;42.896;20.874;2023-10-19T16:18:52;28.08;;;12.30;;
25381;SDS011;16307;42.896;20.874;2023-10-19T16:21:38;24.40;;;11.43;;